createdAt,value
2018-11-23T00:01:32.041Z,23.83
2018-11-23T00:04:00.688Z,21.53
2018-11-23T00:06:29.340Z,24.07
2018-11-23T00:08:58.040Z,23.93
2018-11-23T00:11:26.651Z,23.30
2018-11-23T00:13:55.267Z,24.17
2018-11-23T00:16:23.884Z,33.70
2018-11-23T00:18:52.532Z,28.17
2018-11-23T00:21:21.144Z,25.77
2018-11-23T00:23:49.772Z,23.27
2018-11-23T00:26:18.416Z,22.73
2018-11-23T00:28:47.036Z,23.17
2018-11-23T00:31:15.680Z,22.50
2018-11-23T00:33:44.272Z,23.73
2018-11-23T00:36:12.859Z,24.57
2018-11-23T00:38:41.471Z,23.17
2018-11-23T00:41:10.088Z,22.23
2018-11-23T00:43:38.771Z,25.27
2018-11-23T00:46:07.499Z,25.83
2018-11-23T00:48:36.111Z,26.03
2018-11-23T00:51:05.119Z,25.83
2018-11-23T00:53:33.751Z,25.20
2018-11-23T00:56:02.418Z,25.37
2018-11-23T00:58:31.023Z,25.03
2018-11-23T01:00:59.665Z,24.87
2018-11-23T01:03:28.355Z,23.30
2018-11-23T01:05:56.995Z,24.17
2018-11-23T01:08:25.631Z,21.20
2018-11-23T01:10:54.271Z,22.03
2018-11-23T01:13:22.887Z,24.20
2018-11-23T01:15:51.498Z,22.07
2018-11-23T01:18:20.135Z,25.30
2018-11-23T01:20:48.770Z,22.73
2018-11-23T01:23:17.399Z,23.40
2018-11-23T01:25:46.027Z,23.13
2018-11-23T01:28:14.638Z,25.00
2018-11-23T01:30:43.242Z,24.30
2018-11-23T01:33:11.858Z,23.70
2018-11-23T01:35:40.470Z,22.37
2018-11-23T01:38:09.078Z,20.77
2018-11-23T01:40:38.751Z,24.23
2018-11-23T01:43:06.382Z,23.80
2018-11-23T01:45:35.015Z,22.40
2018-11-23T01:48:03.646Z,22.33
2018-11-23T01:50:32.418Z,23.20
2018-11-23T01:53:01.052Z,23.07
2018-11-23T01:55:29.775Z,22.33
2018-11-23T01:57:58.390Z,23.43
2018-11-23T02:00:28.298Z,23.27
2018-11-23T02:02:57.403Z,24.07
2018-11-23T02:05:26.015Z,25.40
2018-11-23T02:08:08.246Z,23.67
2018-11-23T02:10:36.861Z,23.23
2018-11-23T02:13:05.698Z,22.63
2018-11-23T02:15:34.314Z,23.83
2018-11-23T02:18:02.959Z,24.77
2018-11-23T02:20:31.570Z,24.67
2018-11-23T02:23:00.186Z,23.07
2018-11-23T02:25:28.801Z,21.87
2018-11-23T02:28:14.934Z,22.60
2018-11-23T02:30:44.014Z,23.17
2018-11-23T02:33:12.694Z,20.27
2018-11-23T02:35:41.322Z,21.03
2018-11-23T02:38:09.922Z,20.03
2018-11-23T02:40:38.605Z,21.57
2018-11-23T02:43:07.193Z,21.20
2018-11-23T02:45:35.805Z,23.73
2018-11-23T02:48:04.473Z,22.70
2018-11-23T02:50:33.086Z,23.13
2018-11-23T02:53:01.710Z,24.27
2018-11-23T02:55:30.901Z,24.03
2018-11-23T02:57:59.521Z,22.83
2018-11-23T03:00:28.142Z,22.23
2018-11-23T03:02:56.806Z,23.23
2018-11-23T03:05:25.437Z,23.93
2018-11-23T03:07:54.030Z,23.83
2018-11-23T03:10:22.646Z,22.37
2018-11-23T03:12:51.371Z,22.60
2018-11-23T03:15:20.717Z,21.87
2018-11-23T03:17:49.933Z,22.20
2018-11-23T03:20:20.681Z,22.47
2018-11-23T03:22:49.333Z,24.33
2018-11-23T03:25:17.986Z,20.67
2018-11-23T03:27:46.620Z,20.80
2018-11-23T03:30:18.107Z,20.80
2018-11-23T03:32:47.847Z,21.57
2018-11-23T03:35:17.001Z,20.77
2018-11-23T03:37:45.897Z,20.97
2018-11-23T03:40:14.537Z,21.33
2018-11-23T03:42:43.157Z,19.57
2018-11-23T03:45:12.882Z,23.67
2018-11-23T03:47:42.102Z,20.93
2018-11-23T03:50:11.881Z,22.37
2018-11-23T03:52:40.793Z,23.70
2018-11-23T03:55:09.425Z,21.87
2018-11-23T03:57:38.177Z,22.83
2018-11-23T04:00:17.160Z,21.30
2018-11-23T04:02:39.442Z,21.27
2018-11-23T04:05:08.253Z,21.10
2018-11-23T04:07:36.861Z,22.67
2018-11-23T04:10:06.662Z,22.07
2018-11-23T04:12:35.361Z,20.80
2018-11-23T04:15:04.105Z,21.57
2018-11-23T04:17:32.776Z,22.70
2018-11-23T04:20:01.385Z,20.77
2018-11-23T04:22:30.013Z,20.60
2018-11-23T04:24:58.641Z,21.00
2018-11-23T04:27:27.264Z,21.60
2018-11-23T04:29:55.900Z,20.17
2018-11-23T04:32:24.612Z,21.27
2018-11-23T04:34:53.300Z,21.70
2018-11-23T04:37:21.973Z,20.87
2018-11-23T04:39:50.672Z,21.77
2018-11-23T04:42:19.296Z,20.90
2018-11-23T04:44:47.900Z,22.30
2018-11-23T04:47:16.496Z,21.77
2018-11-23T04:49:45.300Z,20.57
2018-11-23T04:52:13.909Z,22.77
2018-11-23T04:54:42.508Z,21.50
2018-11-23T04:57:11.156Z,22.57
2018-11-23T04:59:39.756Z,24.07
2018-11-23T05:02:08.467Z,23.23
2018-11-23T05:04:37.060Z,23.33
2018-11-23T05:07:05.736Z,24.13
2018-11-23T05:09:34.364Z,24.20
2018-11-23T05:12:02.996Z,23.67
2018-11-23T05:14:31.667Z,24.77
2018-11-23T05:17:00.300Z,24.03
2018-11-23T05:19:28.938Z,24.77
2018-11-23T05:21:57.579Z,24.43
2018-11-23T05:24:26.244Z,25.47
2018-11-23T05:26:54.843Z,25.43
2018-11-23T05:29:23.443Z,26.17
2018-11-23T05:31:52.055Z,27.30
2018-11-23T05:34:20.703Z,26.57
2018-11-23T05:36:49.347Z,26.57
2018-11-23T05:39:17.968Z,27.07
2018-11-23T05:41:47.378Z,26.70
2018-11-23T05:44:15.586Z,25.87
2018-11-23T05:46:44.226Z,28.27
2018-11-23T05:49:12.858Z,27.87
2018-11-23T05:51:41.510Z,30.67
2018-11-23T05:54:10.180Z,27.27
2018-11-23T05:56:38.809Z,26.83
2018-11-23T05:59:07.443Z,27.57
2018-11-23T06:01:36.051Z,32.27
2018-11-23T06:04:04.946Z,30.53
2018-11-23T06:06:33.626Z,38.93
2018-11-23T06:09:02.262Z,35.70
2018-11-23T06:11:30.874Z,37.10
2018-11-23T06:13:59.502Z,39.07
2018-11-23T06:16:28.094Z,31.70
2018-11-23T06:18:56.705Z,29.20
2018-11-23T06:21:25.329Z,30.77
2018-11-23T06:23:54.067Z,29.77
2018-11-23T06:26:24.853Z,29.93
2018-11-23T06:28:53.622Z,33.40
2018-11-23T06:31:22.234Z,32.03
2018-11-23T06:33:51.133Z,31.20
2018-11-23T06:36:19.737Z,29.47
2018-11-23T06:38:48.363Z,29.43
2018-11-23T06:41:16.965Z,28.93
2018-11-23T06:43:46.041Z,28.10
2018-11-23T06:46:14.666Z,26.97
2018-11-23T06:48:43.312Z,27.80
2018-11-23T06:51:11.941Z,30.90
2018-11-23T06:53:40.529Z,30.00
2018-11-23T06:56:09.161Z,30.03
2018-11-23T06:58:37.761Z,29.50
2018-11-23T07:01:06.374Z,30.50
2018-11-23T07:03:35.012Z,31.23
2018-11-23T07:06:03.669Z,29.27
2018-11-23T07:08:32.785Z,31.17
2018-11-23T07:11:02.856Z,29.17
2018-11-23T07:13:32.337Z,28.10
2018-11-23T07:16:01.049Z,30.53
2018-11-23T07:18:29.793Z,29.70
2018-11-23T07:20:58.404Z,30.60
2018-11-23T07:23:27.080Z,31.50
2018-11-23T07:25:55.712Z,31.73
2018-11-23T07:28:24.316Z,29.77
2018-11-23T07:30:52.964Z,30.73
2018-11-23T07:33:21.580Z,28.07
2018-11-23T07:35:50.276Z,30.20
2018-11-23T07:38:18.884Z,34.13
2018-11-23T07:40:58.814Z,31.47
2018-11-23T07:43:27.425Z,32.10
2018-11-23T07:45:56.057Z,33.47
2018-11-23T07:48:24.679Z,33.73
2018-11-23T07:50:53.311Z,35.60
2018-11-23T07:53:21.931Z,32.90
2018-11-23T07:55:50.551Z,35.73
2018-11-23T07:58:19.176Z,32.73
2018-11-23T08:00:47.801Z,33.23
2018-11-23T08:03:16.409Z,33.57
2018-11-23T08:05:45.023Z,33.20
2018-11-23T08:08:13.627Z,32.93
2018-11-23T08:10:41.415Z,33.17
2018-11-23T08:13:10.016Z,34.17
2018-11-23T08:15:38.663Z,32.23
2018-11-23T08:18:07.319Z,36.97
2018-11-23T08:20:35.955Z,43.80
2018-11-23T08:23:04.639Z,40.70
2018-11-23T08:25:33.253Z,43.30
2018-11-23T08:28:01.863Z,51.07
2018-11-23T08:30:30.914Z,48.40
2018-11-23T08:32:59.945Z,45.33
2018-11-23T08:35:28.587Z,43.50
2018-11-23T08:37:57.195Z,42.33
2018-11-23T08:40:27.060Z,45.70
2018-11-23T08:42:56.255Z,40.27
2018-11-23T08:45:26.078Z,42.83
2018-11-23T08:47:54.684Z,36.97
2018-11-23T08:50:29.514Z,36.47
2018-11-23T08:52:58.378Z,36.13
2018-11-23T08:55:27.524Z,36.20
2018-11-23T08:57:56.135Z,37.20
2018-11-23T09:00:27.866Z,34.17
2018-11-23T09:02:58.186Z,41.70
2018-11-23T09:05:26.818Z,35.90
2018-11-23T09:07:56.370Z,34.57
2018-11-23T09:10:26.581Z,33.40
2018-11-23T09:12:59.509Z,33.57
2018-11-23T09:15:28.147Z,33.17
2018-11-23T09:17:56.790Z,35.07
2018-11-23T09:20:25.458Z,33.60
2018-11-23T09:22:54.070Z,31.13
2018-11-23T09:25:23.329Z,31.93
2018-11-23T09:27:51.999Z,32.63
2018-11-23T09:30:22.850Z,33.10
2018-11-23T09:32:52.226Z,30.93
2018-11-23T09:35:20.965Z,32.60
2018-11-23T09:37:50.048Z,33.87
2018-11-23T09:40:20.825Z,37.60
2018-11-23T09:42:49.696Z,35.30
2018-11-23T09:45:20.730Z,32.30
2018-11-23T09:47:50.553Z,34.77
2018-11-23T09:50:20.473Z,38.53
2018-11-23T09:52:50.258Z,37.90
2018-11-23T09:55:19.444Z,38.40
2018-11-23T09:57:48.078Z,37.83
2018-11-23T10:00:19.554Z,49.63
2018-11-23T10:02:49.134Z,43.97
2018-11-23T10:05:18.261Z,42.97
2018-11-23T10:07:48.257Z,39.40
2018-11-23T10:10:17.721Z,37.83
2018-11-23T10:12:46.469Z,40.70
2018-11-23T10:15:16.361Z,42.17
2018-11-23T10:17:45.021Z,53.97
2018-11-23T10:20:15.941Z,43.03
2018-11-23T10:22:45.113Z,38.27
2018-11-23T10:25:16.269Z,38.63
2018-11-23T10:27:45.166Z,38.23
2018-11-23T10:30:17.057Z,36.53
2018-11-23T10:32:46.450Z,64.77
2018-11-23T10:35:15.370Z,65.57
2018-11-23T10:37:44.953Z,69.97
2018-11-23T10:40:15.881Z,36.97
2018-11-23T10:42:44.877Z,34.20
2018-11-23T10:45:15.405Z,34.57
2018-11-23T10:47:44.105Z,38.77
2018-11-23T10:50:15.661Z,41.83
2018-11-23T10:52:44.568Z,36.97
2018-11-23T10:55:16.364Z,34.00
2018-11-23T10:57:45.029Z,39.33
2018-11-23T11:00:21.121Z,46.37
2018-11-23T11:02:55.576Z,39.83
2018-11-23T11:05:29.656Z,35.43
2018-11-23T11:07:59.848Z,38.73
2018-11-23T11:10:28.563Z,33.77
2018-11-23T11:12:57.280Z,35.03
2018-11-23T11:15:25.924Z,36.03
2018-11-23T11:17:54.536Z,36.20
2018-11-23T11:20:23.169Z,38.07
2018-11-23T11:22:51.884Z,38.00
2018-11-23T11:25:20.504Z,37.23
2018-11-23T11:27:49.154Z,35.87
2018-11-23T11:30:18.481Z,36.87
2018-11-23T11:32:47.515Z,35.23
2018-11-23T11:35:16.164Z,37.80
2018-11-23T11:37:45.133Z,38.00
2018-11-23T11:40:15.171Z,34.93
2018-11-23T11:42:44.144Z,38.30
2018-11-23T11:45:15.119Z,40.13
2018-11-23T11:47:44.423Z,37.63
2018-11-23T11:50:13.544Z,38.30
2018-11-23T11:52:43.241Z,35.80
2018-11-23T11:55:13.915Z,37.37
2018-11-23T11:57:43.055Z,34.80
2018-11-23T12:00:16.915Z,32.00
2018-11-23T12:02:45.608Z,32.00
2018-11-23T12:05:17.679Z,31.50
2018-11-23T12:07:46.332Z,34.90
2018-11-23T12:10:17.263Z,34.43
2018-11-23T12:12:46.095Z,32.13
2018-11-23T12:15:15.463Z,30.57
2018-11-23T12:17:44.127Z,29.73
2018-11-23T12:20:14.995Z,30.63
2018-11-23T12:22:43.888Z,29.47
2018-11-23T12:25:12.699Z,29.03
2018-11-23T12:27:41.331Z,28.87
2018-11-23T12:30:11.896Z,30.00
2018-11-23T12:32:41.223Z,29.67
2018-11-23T12:35:11.273Z,31.93
2018-11-23T12:37:40.151Z,34.07
2018-11-23T12:40:11.079Z,33.93
2018-11-23T12:42:39.845Z,62.30
2018-11-23T12:45:10.300Z,36.20
2018-11-23T12:47:39.023Z,31.33
2018-11-23T12:50:10.879Z,31.87
2018-11-23T12:52:39.551Z,32.40
2018-11-23T12:55:08.765Z,32.00
2018-11-23T12:57:37.378Z,31.53
2018-11-23T13:00:11.961Z,32.23
2018-11-23T13:02:40.601Z,31.33
2018-11-23T13:05:09.213Z,32.33
2018-11-23T13:07:37.827Z,32.23
2018-11-23T13:10:06.997Z,31.63
2018-11-23T13:12:35.626Z,31.07
2018-11-23T13:15:04.717Z,32.23
2018-11-23T13:17:33.354Z,31.40
2018-11-23T13:20:01.985Z,29.23
2018-11-23T13:22:30.794Z,32.03
2018-11-23T13:24:59.317Z,32.40
2018-11-23T13:27:27.876Z,31.17
2018-11-23T13:29:56.370Z,30.40
2018-11-23T13:32:24.841Z,32.73
2018-11-23T13:34:53.384Z,29.43
2018-11-23T13:37:21.912Z,32.73
2018-11-23T13:39:50.440Z,30.20
2018-11-23T13:42:18.948Z,29.53
2018-11-23T13:44:47.464Z,30.03
2018-11-23T13:47:15.964Z,32.53
2018-11-23T13:49:44.498Z,30.67
2018-11-23T13:52:12.992Z,33.50
2018-11-23T13:54:41.488Z,34.30
2018-11-23T13:57:10.020Z,34.40
2018-11-23T13:59:38.516Z,32.60
2018-11-23T14:02:07.036Z,47.23
2018-11-23T14:04:35.539Z,32.30
2018-11-23T14:07:04.070Z,32.00
2018-11-23T14:09:32.571Z,32.57
2018-11-23T14:12:01.136Z,51.50
2018-11-23T14:14:29.624Z,59.43
2018-11-23T14:16:58.127Z,38.07
2018-11-23T14:19:26.647Z,34.83
2018-11-23T14:21:55.163Z,32.93
2018-11-23T14:24:23.652Z,32.40
2018-11-23T14:26:52.154Z,31.60
2018-11-23T14:29:20.743Z,30.50
2018-11-23T14:31:49.247Z,29.83
2018-11-23T14:34:17.753Z,33.07
2018-11-23T14:36:46.287Z,33.80
2018-11-23T14:39:14.797Z,34.13
2018-11-23T14:41:43.648Z,32.90
2018-11-23T14:44:12.167Z,30.43
2018-11-23T14:46:40.692Z,30.80
2018-11-23T14:49:09.180Z,35.73
2018-11-23T14:51:37.712Z,30.97
2018-11-23T14:54:06.235Z,29.63
2018-11-23T14:56:34.750Z,31.57
2018-11-23T14:59:03.315Z,29.77
2018-11-23T15:01:31.831Z,31.63
2018-11-23T15:04:00.315Z,31.97
2018-11-23T15:06:28.823Z,30.53
2018-11-23T15:09:29.403Z,32.37
2018-11-23T15:12:27.495Z,43.13
2018-11-23T15:15:28.530Z,33.43
2018-11-23T15:18:26.409Z,33.80
2018-11-23T15:20:55.013Z,31.37
2018-11-23T15:23:53.758Z,31.50
2018-11-23T15:26:22.254Z,30.07
2018-11-23T15:28:50.766Z,32.97
2018-11-23T15:31:19.263Z,36.53
2018-11-23T15:33:47.830Z,38.07
2018-11-23T15:36:16.342Z,39.30
2018-11-23T15:38:44.846Z,39.90
2018-11-23T15:41:13.370Z,39.33
2018-11-23T15:43:41.858Z,38.33
2018-11-23T15:46:10.381Z,39.67
2018-11-23T15:48:38.906Z,36.80
2018-11-23T15:51:09.006Z,34.27
2018-11-23T15:53:37.807Z,37.10
2018-11-23T15:56:06.694Z,41.50
2018-11-23T15:58:35.169Z,39.67
2018-11-23T16:01:03.753Z,39.27
2018-11-23T16:03:32.513Z,41.10
2018-11-23T16:06:01.429Z,42.63
2018-11-23T16:08:30.118Z,40.07
2018-11-23T16:10:58.568Z,37.10
2018-11-23T16:13:27.042Z,36.27
2018-11-23T16:15:55.549Z,37.47
2018-11-23T16:18:24.065Z,40.90
2018-11-23T16:20:52.550Z,38.03
2018-11-23T16:23:21.689Z,41.57
2018-11-23T16:25:50.957Z,37.57
2018-11-23T16:28:19.439Z,40.13
2018-11-23T16:30:49.357Z,40.03
2018-11-23T16:33:20.309Z,39.67
2018-11-23T16:35:48.885Z,38.50
2018-11-23T16:38:18.806Z,43.67
2018-11-23T16:40:49.870Z,41.13
2018-11-23T16:43:18.364Z,41.77
2018-11-23T16:45:47.148Z,41.40
2018-11-23T16:48:16.260Z,38.37
2018-11-23T16:50:45.233Z,40.67
2018-11-23T16:53:13.792Z,37.87
2018-11-23T16:55:42.315Z,39.23
2018-11-23T16:58:11.989Z,41.00
2018-11-23T17:00:41.856Z,40.93
2018-11-23T17:03:12.064Z,40.60
2018-11-23T17:05:43.043Z,42.93
2018-11-23T17:08:11.723Z,42.77
2018-11-23T17:10:40.313Z,40.67
2018-11-23T17:13:08.967Z,41.83
2018-11-23T17:15:37.587Z,40.73
2018-11-23T17:18:07.500Z,39.73
2018-11-23T17:20:36.398Z,41.00
2018-11-23T17:23:06.227Z,42.17
2018-11-23T17:25:34.714Z,39.93
2018-11-23T17:28:04.711Z,39.77
2018-11-23T17:30:33.924Z,38.07
2018-11-23T17:33:02.439Z,43.00
2018-11-23T17:35:31.030Z,42.17
2018-11-23T17:37:59.531Z,36.87
2018-11-23T17:40:29.602Z,39.47
2018-11-23T17:42:58.530Z,40.87
2018-11-23T17:45:29.742Z,45.93
2018-11-23T17:47:58.286Z,40.40
2018-11-23T17:50:28.887Z,40.77
2018-11-23T17:52:57.583Z,41.03
2018-11-23T17:55:26.098Z,40.17
2018-11-23T17:57:55.447Z,41.30
2018-11-23T18:00:29.087Z,40.57
2018-11-23T18:02:58.358Z,41.13
2018-11-23T18:05:27.447Z,43.70
2018-11-23T18:07:56.030Z,38.07
2018-11-23T18:10:28.745Z,40.33
2018-11-23T18:12:57.946Z,37.83
2018-11-23T18:15:27.657Z,42.10
2018-11-23T18:17:57.194Z,38.23
2018-11-23T18:20:26.854Z,36.27
2018-11-23T18:22:56.172Z,36.27
2018-11-23T18:25:28.858Z,36.70
2018-11-23T18:28:00.510Z,37.13
2018-11-23T18:30:31.132Z,38.90
2018-11-23T18:33:00.163Z,42.67
2018-11-23T18:35:28.693Z,40.63
2018-11-23T18:37:57.924Z,44.77
2018-11-23T18:40:26.421Z,46.00
2018-11-23T18:42:54.949Z,49.27
2018-11-23T18:45:23.466Z,43.40
2018-11-23T18:47:51.957Z,38.53
2018-11-23T18:50:20.474Z,44.87
2018-11-23T18:52:48.956Z,44.90
2018-11-23T18:55:18.107Z,43.23
2018-11-23T18:57:46.046Z,49.90
2018-11-23T19:00:15.507Z,41.77
2018-11-23T19:02:45.209Z,40.23
2018-11-23T19:05:22.741Z,40.10
2018-11-23T19:07:51.345Z,37.20
2018-11-23T19:10:19.961Z,37.53
2018-11-23T19:12:48.529Z,36.57
2018-11-23T19:15:25.337Z,43.47
2018-11-23T19:17:46.801Z,44.20
2018-11-23T19:20:17.588Z,47.83
2018-11-23T19:22:48.392Z,44.77
2018-11-23T19:25:17.041Z,50.37
2018-11-23T19:27:45.673Z,48.07
2018-11-23T19:30:15.493Z,43.67
2018-11-23T19:32:44.133Z,39.43
2018-11-23T19:35:12.783Z,41.87
2018-11-23T19:37:41.512Z,42.20
2018-11-23T19:40:12.324Z,43.17
2018-11-23T19:42:40.924Z,40.23
2018-11-23T19:45:10.872Z,40.17
2018-11-23T19:47:39.720Z,39.40
2018-11-23T19:50:16.268Z,40.70
2018-11-23T19:52:44.828Z,37.77
2018-11-23T19:55:14.371Z,35.37
2018-11-23T19:57:42.987Z,40.70
2018-11-23T20:00:14.932Z,38.53
2018-11-23T20:02:43.600Z,36.23
2018-11-23T20:05:12.217Z,36.33
2018-11-23T20:07:40.948Z,36.23
2018-11-23T20:10:14.152Z,34.63
2018-11-23T20:12:43.006Z,35.40
2018-11-23T20:15:14.062Z,37.37
2018-11-23T20:17:42.681Z,36.53
2018-11-23T20:20:12.402Z,36.73
2018-11-23T20:22:41.032Z,38.47
2018-11-23T20:25:11.028Z,35.90
2018-11-23T20:27:39.580Z,39.00
2018-11-23T20:30:13.128Z,36.70
2018-11-23T20:32:41.779Z,39.13
2018-11-23T20:35:12.372Z,38.17
2018-11-23T20:37:41.108Z,40.10
2018-11-23T20:40:12.932Z,43.57
2018-11-23T20:42:41.504Z,43.27
2018-11-23T20:45:11.123Z,39.27
2018-11-23T20:47:39.863Z,42.23
2018-11-23T20:50:09.971Z,42.67
2018-11-23T20:52:38.629Z,44.77
2018-11-23T20:55:09.723Z,41.63
2018-11-23T20:57:38.239Z,41.67
2018-11-23T21:00:10.548Z,44.87
2018-11-23T21:02:39.056Z,38.93
2018-11-23T21:05:08.871Z,40.37
2018-11-23T21:07:37.707Z,40.23
2018-11-23T21:10:10.492Z,40.40
2018-11-23T21:12:39.036Z,40.43
2018-11-23T21:15:14.847Z,40.17
2018-11-23T21:17:43.347Z,41.80
2018-11-23T21:20:11.967Z,42.10
2018-11-23T21:22:40.523Z,38.03
2018-11-23T21:25:09.947Z,43.13
2018-11-23T21:27:38.479Z,43.90
2018-11-23T21:30:12.658Z,43.50
2018-11-23T21:32:41.196Z,43.30
2018-11-23T21:35:10.319Z,43.10
2018-11-23T21:37:38.824Z,43.23
2018-11-23T21:40:12.427Z,42.17
2018-11-23T21:42:41.211Z,43.20
2018-11-23T21:45:16.476Z,42.27
2018-11-23T21:47:45.026Z,42.33
2018-11-23T21:50:25.616Z,41.37
2018-11-23T21:52:50.214Z,43.00
2018-11-23T21:55:21.762Z,38.60
2018-11-23T21:57:50.559Z,37.87
2018-11-23T22:00:19.086Z,38.37
2018-11-23T22:02:47.602Z,37.73
2018-11-23T22:05:16.130Z,36.93
2018-11-23T22:07:44.745Z,35.63
2018-11-23T22:10:14.306Z,35.53
2018-11-23T22:12:42.838Z,35.77
2018-11-23T22:15:15.734Z,35.97
2018-11-23T22:17:44.298Z,37.00
2018-11-23T22:20:13.875Z,35.93
2018-11-23T22:22:42.414Z,36.43
2018-11-23T22:25:13.071Z,36.07
2018-11-23T22:27:41.647Z,36.07
2018-11-23T22:30:17.483Z,36.37
2018-11-23T22:32:45.998Z,36.33
2018-11-23T22:35:14.568Z,37.53
2018-11-23T22:37:43.090Z,34.83
2018-11-23T22:40:12.958Z,35.73
2018-11-23T22:42:42.557Z,35.77
2018-11-23T22:45:12.190Z,36.03
2018-11-23T22:47:40.713Z,37.80
2018-11-23T22:50:10.834Z,36.97
2018-11-23T22:52:39.369Z,37.77
2018-11-23T22:55:09.397Z,36.20
2018-11-23T22:57:38.061Z,37.43
2018-11-23T23:00:16.853Z,42.43
2018-11-23T23:02:45.381Z,35.13
2018-11-23T23:05:13.899Z,38.73
2018-11-23T23:07:42.426Z,39.23
2018-11-23T23:10:10.953Z,37.23
2018-11-23T23:12:39.465Z,38.50
2018-11-23T23:15:09.693Z,40.67
2018-11-23T23:17:38.225Z,45.43
2018-11-23T23:20:09.361Z,41.00
2018-11-23T23:22:37.904Z,37.13
2018-11-23T23:25:07.613Z,39.80
2018-11-23T23:27:36.225Z,37.40
2018-11-23T23:30:06.298Z,40.60
2018-11-23T23:32:34.814Z,41.70
2018-11-23T23:35:03.380Z,41.47
2018-11-23T23:37:31.894Z,41.17
2018-11-23T23:40:00.414Z,42.10
2018-11-23T23:42:28.909Z,40.40
2018-11-23T23:44:57.448Z,49.13
2018-11-23T23:47:25.956Z,41.67
2018-11-23T23:49:54.465Z,42.90
2018-11-23T23:52:22.981Z,41.50
2018-11-23T23:54:51.773Z,43.17
2018-11-23T23:57:20.281Z,40.47
2018-11-23T23:59:48.797Z,40.77
